GTI4428 CYYC-KBFI
Flight info
| Callsign | GTI4428 |
|---|---|
| Flight time | 1h 3m |
| Altitude | 32000 |
| Route | BOTAG DCT SIMTA DCT BINVO DCT YDC DCT JAKSN GLASR3 |
| Aircraft | B744/H-SDE3FGHIM1M2RWXY/LB1 |
Departure
| Time | 2026-05-06 01:19 |
|---|---|
| Airport | Calgary International Airport (CYYC) |
Arrival
| Time | 2026-05-06 02:22 |
|---|---|
| Airport | King County International Airport - Boeing Field (KBFI) |
| Time | Latitude | Longitude | Altitude | Speed | Heading |
|---|---|---|---|---|---|
| 2026-05-06 00:40 | 51.13063 | -114.03506 | 3560 ft | 0 kts | 30° |
| 2026-05-06 00:44 | 51.13062 | -114.03506 | 3560 ft | 0 kts | 30° |
| 2026-05-06 01:04 | 51.13051 | -114.03517 | 3558 ft | 3 kts | 31° |
| 2026-05-06 01:04 | 51.13030 | -114.03536 | 3558 ft | 3 kts | 27° |
| 2026-05-06 01:04 | 51.13012 | -114.03553 | 3558 ft | 3 kts | 40° |
| 2026-05-06 01:05 | 51.12998 | -114.03580 | 3558 ft | 3 kts | 74° |
| 2026-05-06 01:05 | 51.12997 | -114.03616 | 3558 ft | 3 kts | 111° |
| 2026-05-06 01:05 | 51.13008 | -114.03650 | 3558 ft | 3 kts | 121° |
| 2026-05-06 01:05 | 51.13012 | -114.03659 | 3558 ft | 0 kts | 120° |
| 2026-05-06 01:09 | 51.13011 | -114.03658 | 3569 ft | 1 kts | 120° |
| 2026-05-06 01:09 | 51.13006 | -114.03644 | 3569 ft | 2 kts | 120° |
| 2026-05-06 01:10 | 51.12997 | -114.03619 | 3558 ft | 3 kts | 120° |
| 2026-05-06 01:10 | 51.12984 | -114.03583 | 3559 ft | 4 kts | 119° |
| 2026-05-06 01:10 | 51.12968 | -114.03536 | 3558 ft | 5 kts | 119° |
| 2026-05-06 01:10 | 51.12944 | -114.03468 | 3568 ft | 10 kts | 119° |
| 2026-05-06 01:11 | 51.12900 | -114.03345 | 3564 ft | 16 kts | 120° |
| 2026-05-06 01:11 | 51.12838 | -114.03171 | 3562 ft | 13 kts | 126° |
| 2026-05-06 01:11 | 51.12819 | -114.03144 | 3561 ft | 1 kts | 173° |
| 2026-05-06 01:11 | 51.12796 | -114.03151 | 3562 ft | 10 kts | 197° |
| 2026-05-06 01:12 | 51.12730 | -114.03136 | 3564 ft | 14 kts | 141° |
| 2026-05-06 01:12 | 51.12655 | -114.02954 | 3558 ft | 24 kts | 118° |
| 2026-05-06 01:12 | 51.12604 | -114.02678 | 3564 ft | 27 kts | 92° |
| 2026-05-06 01:12 | 51.12602 | -114.02457 | 3563 ft | 6 kts | 98° |
| 2026-05-06 01:13 | 51.12592 | -114.02428 | 3558 ft | 2 kts | 140° |
| 2026-05-06 01:13 | 51.12567 | -114.02416 | 3558 ft | 8 kts | 179° |
| 2026-05-06 01:13 | 51.12470 | -114.02418 | 3562 ft | 20 kts | 180° |
| 2026-05-06 01:13 | 51.12303 | -114.02418 | 3564 ft | 27 kts | 180° |
| 2026-05-06 01:14 | 51.11850 | -114.02422 | 3562 ft | 34 kts | 178° |
| 2026-05-06 01:14 | 51.11625 | -114.02417 | 3563 ft | 30 kts | 180° |
| 2026-05-06 01:14 | 51.11420 | -114.02419 | 3562 ft | 29 kts | 180° |
| 2026-05-06 01:15 | 51.11226 | -114.02418 | 3565 ft | 27 kts | 180° |
| 2026-05-06 01:15 | 51.11041 | -114.02419 | 3562 ft | 26 kts | 180° |
| 2026-05-06 01:15 | 51.10865 | -114.02420 | 3564 ft | 25 kts | 180° |
| 2026-05-06 01:15 | 51.10701 | -114.02456 | 3562 ft | 23 kts | 195° |
| 2026-05-06 01:16 | 51.10551 | -114.02527 | 3564 ft | 22 kts | 198° |
| 2026-05-06 01:16 | 51.10413 | -114.02586 | 3560 ft | 19 kts | 184° |
| 2026-05-06 01:16 | 51.10289 | -114.02581 | 3563 ft | 17 kts | 178° |
| 2026-05-06 01:16 | 51.10179 | -114.02579 | 3562 ft | 15 kts | 180° |
| 2026-05-06 01:17 | 51.10064 | -114.02581 | 3563 ft | 20 kts | 180° |
| 2026-05-06 01:17 | 51.09931 | -114.02583 | 3564 ft | 16 kts | 180° |
| 2026-05-06 01:17 | 51.09853 | -114.02566 | 3564 ft | 9 kts | 148° |
| 2026-05-06 01:17 | 51.09781 | -114.02413 | 3564 ft | 24 kts | 114° |
| 2026-05-06 01:18 | 51.09721 | -114.02221 | 3559 ft | 9 kts | 109° |
| 2026-05-06 01:18 | 51.09722 | -114.02177 | 3563 ft | 4 kts | 63° |
| 2026-05-06 01:18 | 51.09750 | -114.02141 | 3562 ft | 6 kts | 4° |
| 2026-05-06 01:18 | 51.09847 | -114.02142 | 3565 ft | 43 kts | 0° |
| 2026-05-06 01:19 | 51.10499 | -114.02133 | 3562 ft | 141 kts | 360° |
| 2026-05-06 01:19 | 51.11695 | -114.02164 | 3870 ft | 188 kts | 1° |
| 2026-05-06 01:19 | 51.13006 | -114.02235 | 5021 ft | 188 kts | 0° |
| 2026-05-06 01:19 | 51.14327 | -114.02341 | 5897 ft | 195 kts | 359° |
| 2026-05-06 01:20 | 51.15669 | -114.02473 | 6599 ft | 194 kts | 358° |
| 2026-05-06 01:20 | 51.17020 | -114.02636 | 7290 ft | 195 kts | 350° |
| 2026-05-06 01:20 | 51.18211 | -114.03721 | 7844 ft | 207 kts | 314° |
| 2026-05-06 01:20 | 51.18843 | -114.05864 | 8196 ft | 226 kts | 281° |
| 2026-05-06 01:21 | 51.18654 | -114.08452 | 8530 ft | 246 kts | 255° |
| 2026-05-06 01:21 | 51.18016 | -114.11081 | 8913 ft | 267 kts | 251° |
| 2026-05-06 01:21 | 51.17268 | -114.13884 | 9659 ft | 280 kts | 252° |
| 2026-05-06 01:21 | 51.16588 | -114.16777 | 10554 ft | 286 kts | 257° |
| 2026-05-06 01:22 | 51.15958 | -114.19864 | 11280 ft | 302 kts | 258° |
| 2026-05-06 01:22 | 51.15276 | -114.23164 | 12013 ft | 323 kts | 257° |
| 2026-05-06 01:22 | 51.14513 | -114.26657 | 12755 ft | 345 kts | 256° |
| 2026-05-06 01:22 | 51.13693 | -114.30372 | 13865 ft | 363 kts | 257° |
| 2026-05-06 01:23 | 51.12851 | -114.34240 | 15104 ft | 376 kts | 258° |
| 2026-05-06 01:23 | 51.11985 | -114.38252 | 16339 ft | 390 kts | 259° |
| 2026-05-06 01:23 | 51.11085 | -114.42401 | 17598 ft | 403 kts | 259° |
| 2026-05-06 01:23 | 51.10145 | -114.46692 | 18873 ft | 416 kts | 259° |
| 2026-05-06 01:24 | 51.09180 | -114.51076 | 20158 ft | 424 kts | 259° |
| 2026-05-06 01:24 | 51.08201 | -114.55537 | 21470 ft | 431 kts | 259° |
| 2026-05-06 01:24 | 51.07209 | -114.60069 | 22815 ft | 437 kts | 260° |
| 2026-05-06 01:24 | 51.06418 | -114.64727 | 24052 ft | 438 kts | 265° |
| 2026-05-06 01:25 | 51.05678 | -114.69475 | 25142 ft | 445 kts | 265° |
| 2026-05-06 01:25 | 51.04935 | -114.74223 | 26185 ft | 452 kts | 265° |
| 2026-05-06 01:25 | 51.04161 | -114.79099 | 27222 ft | 459 kts | 265° |
| 2026-05-06 01:25 | 51.03370 | -114.84015 | 28559 ft | 457 kts | 265° |
| 2026-05-06 01:26 | 51.02574 | -114.88880 | 30011 ft | 452 kts | 266° |
| 2026-05-06 01:26 | 51.01797 | -114.93700 | 31109 ft | 449 kts | 266° |
| 2026-05-06 01:26 | 51.01025 | -114.98515 | 31907 ft | 449 kts | 267° |
| 2026-05-06 01:26 | 51.00243 | -115.03338 | 32195 ft | 451 kts | 267° |
| 2026-05-06 01:27 | 50.98671 | -115.12907 | 32158 ft | 446 kts | 267° |
| 2026-05-06 01:27 | 50.97118 | -115.22420 | 32138 ft | 445 kts | 266° |
| 2026-05-06 01:28 | 50.95540 | -115.31925 | 32100 ft | 443 kts | 266° |
| 2026-05-06 01:28 | 50.93975 | -115.41401 | 32106 ft | 444 kts | 266° |
| 2026-05-06 01:29 | 50.92399 | -115.50808 | 32076 ft | 443 kts | 266° |
| 2026-05-06 01:29 | 50.90816 | -115.60260 | 32076 ft | 444 kts | 266° |
| 2026-05-06 01:30 | 50.89220 | -115.69705 | 32066 ft | 443 kts | 266° |
| 2026-05-06 01:30 | 50.87617 | -115.79154 | 32053 ft | 445 kts | 265° |
| 2026-05-06 01:31 | 50.86004 | -115.88592 | 32042 ft | 441 kts | 265° |
| 2026-05-06 01:31 | 50.84391 | -115.98013 | 32042 ft | 444 kts | 265° |
| 2026-05-06 01:32 | 50.82763 | -116.07448 | 32034 ft | 445 kts | 265° |
| 2026-05-06 01:32 | 50.81135 | -116.16844 | 32035 ft | 445 kts | 265° |
| 2026-05-06 01:33 | 50.79488 | -116.26276 | 32013 ft | 444 kts | 264° |
| 2026-05-06 01:33 | 50.77840 | -116.35689 | 32027 ft | 444 kts | 264° |
| 2026-05-06 01:34 | 50.76165 | -116.45092 | 32033 ft | 448 kts | 262° |
| 2026-05-06 01:34 | 50.74953 | -116.49629 | 32035 ft | 460 kts | 253° |
| 2026-05-06 01:34 | 50.73487 | -116.54121 | 32031 ft | 460 kts | 252° |
| 2026-05-06 01:35 | 50.70552 | -116.63051 | 32004 ft | 458 kts | 252° |
| 2026-05-06 01:35 | 50.67624 | -116.71969 | 32026 ft | 457 kts | 252° |
| 2026-05-06 01:36 | 50.64691 | -116.80846 | 32019 ft | 457 kts | 252° |
| 2026-05-06 01:36 | 50.61750 | -116.89735 | 32015 ft | 457 kts | 252° |
| 2026-05-06 01:37 | 50.58804 | -116.98590 | 32011 ft | 456 kts | 252° |
| 2026-05-06 01:37 | 50.55875 | -117.07375 | 31993 ft | 454 kts | 251° |
| 2026-05-06 01:38 | 50.52934 | -117.16162 | 31995 ft | 455 kts | 251° |
| 2026-05-06 01:38 | 50.49989 | -117.24935 | 31979 ft | 454 kts | 251° |
| 2026-05-06 01:39 | 50.47033 | -117.33699 | 31969 ft | 452 kts | 250° |
| 2026-05-06 01:39 | 50.44089 | -117.42401 | 31970 ft | 452 kts | 251° |
| 2026-05-06 01:40 | 50.41133 | -117.51110 | 31972 ft | 453 kts | 250° |
| 2026-05-06 01:40 | 50.38177 | -117.59792 | 31943 ft | 453 kts | 251° |
| 2026-05-06 01:41 | 50.35340 | -117.68099 | 31934 ft | 455 kts | 250° |
| 2026-05-06 01:41 | 50.32342 | -117.76833 | 31953 ft | 454 kts | 250° |
| 2026-05-06 01:42 | 50.29339 | -117.85566 | 31934 ft | 453 kts | 250° |
| 2026-05-06 01:42 | 50.26344 | -117.94238 | 31921 ft | 452 kts | 250° |
| 2026-05-06 01:43 | 50.23367 | -118.02836 | 31925 ft | 453 kts | 250° |
| 2026-05-06 01:43 | 50.20367 | -118.11467 | 31929 ft | 452 kts | 250° |
| 2026-05-06 01:44 | 50.17370 | -118.20060 | 31917 ft | 452 kts | 250° |
| 2026-05-06 01:44 | 50.14361 | -118.28656 | 31932 ft | 452 kts | 250° |
| 2026-05-06 01:45 | 50.11339 | -118.37265 | 31937 ft | 453 kts | 250° |
| 2026-05-06 01:45 | 50.08309 | -118.45864 | 31935 ft | 453 kts | 249° |
| 2026-05-06 01:46 | 50.05268 | -118.54469 | 31923 ft | 452 kts | 249° |
| 2026-05-06 01:46 | 50.02236 | -118.63012 | 31929 ft | 450 kts | 249° |
| 2026-05-06 01:47 | 49.99209 | -118.71524 | 31927 ft | 450 kts | 249° |
| 2026-05-06 01:47 | 49.96167 | -118.80045 | 31931 ft | 451 kts | 249° |
| 2026-05-06 01:48 | 49.93141 | -118.88490 | 31927 ft | 450 kts | 249° |
| 2026-05-06 01:48 | 49.90091 | -118.96984 | 31922 ft | 450 kts | 248° |
| 2026-05-06 01:49 | 49.87037 | -119.05441 | 31926 ft | 450 kts | 248° |
| 2026-05-06 01:49 | 49.83980 | -119.13899 | 31915 ft | 450 kts | 248° |
| 2026-05-06 01:50 | 49.80912 | -119.22347 | 31916 ft | 449 kts | 248° |
| 2026-05-06 01:50 | 49.77847 | -119.30774 | 31900 ft | 450 kts | 247° |
| 2026-05-06 01:51 | 49.74769 | -119.39188 | 31893 ft | 449 kts | 247° |
| 2026-05-06 01:51 | 49.71691 | -119.47589 | 31878 ft | 449 kts | 247° |
| 2026-05-06 01:52 | 49.69130 | -119.54557 | 31873 ft | 449 kts | 247° |
| 2026-05-06 01:52 | 49.65537 | -119.64299 | 31842 ft | 448 kts | 247° |
| 2026-05-06 01:53 | 49.62951 | -119.71289 | 31867 ft | 447 kts | 246° |
| 2026-05-06 01:53 | 49.59867 | -119.79601 | 31867 ft | 446 kts | 246° |
| 2026-05-06 01:54 | 49.56791 | -119.87863 | 31869 ft | 447 kts | 246° |
| 2026-05-06 01:54 | 49.53693 | -119.96160 | 31872 ft | 447 kts | 246° |
| 2026-05-06 01:55 | 49.50590 | -120.04449 | 31890 ft | 445 kts | 246° |
| 2026-05-06 01:55 | 49.47483 | -120.12707 | 31900 ft | 445 kts | 246° |
| 2026-05-06 01:56 | 49.44379 | -120.20945 | 31903 ft | 445 kts | 246° |
| 2026-05-06 01:56 | 49.41290 | -120.29109 | 31916 ft | 444 kts | 246° |
| 2026-05-06 01:57 | 49.38080 | -120.37218 | 31918 ft | 450 kts | 237° |
| 2026-05-06 01:57 | 49.35868 | -120.40687 | 31925 ft | 459 kts | 223° |
| 2026-05-06 01:57 | 49.33165 | -120.43376 | 31926 ft | 466 kts | 212° |
| 2026-05-06 01:58 | 49.27246 | -120.47516 | 31924 ft | 468 kts | 208° |
| 2026-05-06 01:58 | 49.21593 | -120.52334 | 31935 ft | 462 kts | 218° |
| 2026-05-06 01:59 | 49.16182 | -120.57652 | 31939 ft | 464 kts | 214° |
| 2026-05-06 01:59 | 49.10565 | -120.62542 | 31929 ft | 463 kts | 216° |
| 2026-05-06 02:00 | 49.05097 | -120.67633 | 31931 ft | 463 kts | 215° |
| 2026-05-06 02:00 | 48.99521 | -120.72615 | 31939 ft | 464 kts | 215° |
| 2026-05-06 02:01 | 48.93981 | -120.77652 | 31939 ft | 463 kts | 215° |
| 2026-05-06 02:01 | 48.88424 | -120.82643 | 31933 ft | 463 kts | 215° |
| 2026-05-06 02:02 | 48.82919 | -120.87595 | 31943 ft | 463 kts | 215° |
| 2026-05-06 02:02 | 48.77371 | -120.92563 | 31930 ft | 462 kts | 215° |
| 2026-05-06 02:03 | 48.71833 | -120.97519 | 31950 ft | 462 kts | 215° |
| 2026-05-06 02:03 | 48.66289 | -121.02457 | 31940 ft | 461 kts | 214° |
| 2026-05-06 02:04 | 48.60749 | -121.07387 | 31971 ft | 462 kts | 214° |
| 2026-05-06 02:04 | 48.57969 | -121.09851 | 31788 ft | 465 kts | 214° |
| 2026-05-06 02:04 | 48.55151 | -121.12352 | 30962 ft | 472 kts | 214° |
| 2026-05-06 02:05 | 48.52335 | -121.14849 | 30168 ft | 478 kts | 214° |
| 2026-05-06 02:05 | 48.49457 | -121.17389 | 29289 ft | 480 kts | 214° |
| 2026-05-06 02:05 | 48.46569 | -121.19936 | 28451 ft | 481 kts | 214° |
| 2026-05-06 02:05 | 48.43673 | -121.22491 | 27578 ft | 484 kts | 214° |
| 2026-05-06 02:06 | 48.40751 | -121.25064 | 26640 ft | 487 kts | 213° |
| 2026-05-06 02:06 | 48.37807 | -121.27651 | 25681 ft | 490 kts | 214° |
| 2026-05-06 02:06 | 48.34849 | -121.30251 | 24692 ft | 494 kts | 213° |
| 2026-05-06 02:06 | 48.31858 | -121.32875 | 23650 ft | 500 kts | 213° |
| 2026-05-06 02:07 | 48.28838 | -121.35520 | 22540 ft | 503 kts | 213° |
| 2026-05-06 02:07 | 48.25812 | -121.38165 | 21491 ft | 502 kts | 213° |
| 2026-05-06 02:07 | 48.22797 | -121.40795 | 20431 ft | 501 kts | 213° |
| 2026-05-06 02:07 | 48.19816 | -121.43392 | 19393 ft | 500 kts | 213° |
| 2026-05-06 02:08 | 48.16820 | -121.46006 | 18364 ft | 497 kts | 212° |
| 2026-05-06 02:08 | 48.13836 | -121.48604 | 17198 ft | 496 kts | 212° |
| 2026-05-06 02:08 | 48.10914 | -121.51135 | 16215 ft | 471 kts | 212° |
| 2026-05-06 02:08 | 48.08154 | -121.53526 | 15277 ft | 446 kts | 212° |
| 2026-05-06 02:09 | 48.05500 | -121.55830 | 14519 ft | 439 kts | 212° |
| 2026-05-06 02:09 | 48.02888 | -121.58094 | 13873 ft | 430 kts | 212° |
| 2026-05-06 02:09 | 48.00355 | -121.60284 | 13169 ft | 422 kts | 212° |
| 2026-05-06 02:09 | 47.97804 | -121.62487 | 12463 ft | 415 kts | 211° |
| 2026-05-06 02:10 | 47.95350 | -121.64600 | 11776 ft | 409 kts | 211° |
| 2026-05-06 02:10 | 47.92902 | -121.66705 | 11187 ft | 401 kts | 211° |
| 2026-05-06 02:10 | 47.90539 | -121.68739 | 10993 ft | 384 kts | 211° |
| 2026-05-06 02:10 | 47.88282 | -121.70837 | 11007 ft | 382 kts | 218° |
| 2026-05-06 02:11 | 47.86278 | -121.73397 | 11012 ft | 380 kts | 224° |
| 2026-05-06 02:11 | 47.84385 | -121.76137 | 11011 ft | 379 kts | 226° |
| 2026-05-06 02:11 | 47.82469 | -121.78837 | 11009 ft | 375 kts | 224° |
| 2026-05-06 02:11 | 47.80645 | -121.81463 | 11004 ft | 355 kts | 233° |
| 2026-05-06 02:12 | 47.79449 | -121.84628 | 10765 ft | 352 kts | 252° |
| 2026-05-06 02:12 | 47.78977 | -121.88159 | 10394 ft | 344 kts | 266° |
| 2026-05-06 02:12 | 47.78821 | -121.91654 | 10012 ft | 339 kts | 268° |
| 2026-05-06 02:12 | 47.78621 | -121.95088 | 9535 ft | 327 kts | 264° |
| 2026-05-06 02:13 | 47.78170 | -121.98348 | 9060 ft | 317 kts | 255° |
| 2026-05-06 02:13 | 47.77475 | -122.01414 | 8598 ft | 308 kts | 252° |
| 2026-05-06 02:13 | 47.76787 | -122.04396 | 8125 ft | 300 kts | 255° |
| 2026-05-06 02:13 | 47.76224 | -122.07340 | 7675 ft | 292 kts | 261° |
| 2026-05-06 02:14 | 47.76153 | -122.10306 | 7237 ft | 284 kts | 278° |
| 2026-05-06 02:14 | 47.76476 | -122.13140 | 6813 ft | 280 kts | 283° |
| 2026-05-06 02:14 | 47.76898 | -122.15956 | 6380 ft | 277 kts | 284° |
| 2026-05-06 02:14 | 47.77339 | -122.18738 | 5929 ft | 274 kts | 285° |
| 2026-05-06 02:15 | 47.77779 | -122.21488 | 5470 ft | 271 kts | 285° |
| 2026-05-06 02:15 | 47.78212 | -122.24203 | 5025 ft | 268 kts | 284° |
| 2026-05-06 02:15 | 47.78388 | -122.26933 | 4566 ft | 264 kts | 268° |
| 2026-05-06 02:15 | 47.78087 | -122.29571 | 4163 ft | 259 kts | 257° |
| 2026-05-06 02:16 | 47.77627 | -122.32123 | 3767 ft | 247 kts | 255° |
| 2026-05-06 02:16 | 47.77173 | -122.34477 | 3369 ft | 232 kts | 255° |
| 2026-05-06 02:16 | 47.76738 | -122.36771 | 2992 ft | 225 kts | 253° |
| 2026-05-06 02:16 | 47.76114 | -122.38904 | 2612 ft | 224 kts | 239° |
| 2026-05-06 02:17 | 47.75284 | -122.40803 | 2261 ft | 212 kts | 234° |
| 2026-05-06 02:17 | 47.74178 | -122.42173 | 2214 ft | 211 kts | 209° |
| 2026-05-06 02:17 | 47.72877 | -122.43132 | 2210 ft | 209 kts | 205° |
| 2026-05-06 02:17 | 47.71570 | -122.44031 | 2206 ft | 209 kts | 205° |
| 2026-05-06 02:18 | 47.70228 | -122.44835 | 2195 ft | 207 kts | 191° |
| 2026-05-06 02:18 | 47.68831 | -122.44579 | 2193 ft | 206 kts | 155° |
| 2026-05-06 02:18 | 47.67740 | -122.43201 | 2206 ft | 208 kts | 135° |
| 2026-05-06 02:18 | 47.66620 | -122.41855 | 2222 ft | 206 kts | 149° |
| 2026-05-06 02:19 | 47.65387 | -122.40757 | 2222 ft | 204 kts | 151° |
| 2026-05-06 02:19 | 47.64175 | -122.39720 | 2207 ft | 201 kts | 152° |
| 2026-05-06 02:19 | 47.62967 | -122.38693 | 2028 ft | 192 kts | 152° |
| 2026-05-06 02:19 | 47.61885 | -122.37773 | 1781 ft | 171 kts | 152° |
| 2026-05-06 02:20 | 47.59952 | -122.36130 | 1351 ft | 155 kts | 152° |
| 2026-05-06 02:20 | 47.59032 | -122.35350 | 1161 ft | 154 kts | 152° |
| 2026-05-06 02:20 | 47.58107 | -122.34567 | 955 ft | 154 kts | 152° |
| 2026-05-06 02:21 | 47.57180 | -122.33781 | 746 ft | 152 kts | 151° |
| 2026-05-06 02:21 | 47.56273 | -122.33025 | 582 ft | 148 kts | 152° |
| 2026-05-06 02:21 | 47.55377 | -122.32263 | 386 ft | 149 kts | 151° |
| 2026-05-06 02:21 | 47.54512 | -122.31504 | 154 ft | 143 kts | 151° |
| 2026-05-06 02:22 | 47.53669 | -122.30812 | 36 ft | 117 kts | 149° |
| 2026-05-06 02:22 | 47.53179 | -122.30400 | 35 ft | 58 kts | 150° |
| 2026-05-06 02:22 | 47.52956 | -122.30215 | 34 ft | 29 kts | 152° |
| 2026-05-06 02:22 | 47.52785 | -122.30088 | 33 ft | 22 kts | 150° |
| 2026-05-06 02:23 | 47.52705 | -122.30017 | 33 ft | 2 kts | 181° |
| 2026-05-06 02:23 | 47.52692 | -122.30023 | 33 ft | 2 kts | 206° |
| 2026-05-06 02:23 | 47.52669 | -122.30052 | 33 ft | 5 kts | 243° |
| 2026-05-06 02:23 | 47.52671 | -122.30103 | 35 ft | 9 kts | 298° |
| 2026-05-06 02:24 | 47.52757 | -122.30193 | 36 ft | 24 kts | 333° |
| 2026-05-06 02:24 | 47.52938 | -122.30345 | 37 ft | 31 kts | 330° |
| 2026-05-06 02:24 | 47.53121 | -122.30503 | 36 ft | 29 kts | 328° |
| 2026-05-06 02:24 | 47.53292 | -122.30651 | 36 ft | 27 kts | 332° |
| 2026-05-06 02:25 | 47.53456 | -122.30780 | 36 ft | 26 kts | 331° |
| 2026-05-06 02:25 | 47.53606 | -122.30906 | 37 ft | 24 kts | 329° |
| 2026-05-06 02:25 | 47.53743 | -122.31028 | 37 ft | 22 kts | 328° |
| 2026-05-06 02:25 | 47.53870 | -122.31144 | 37 ft | 20 kts | 330° |
| 2026-05-06 02:26 | 47.53953 | -122.31208 | 37 ft | 4 kts | 315° |
| 2026-05-06 02:26 | 47.53968 | -122.31247 | 37 ft | 5 kts | 281° |
| 2026-05-06 02:26 | 47.53958 | -122.31314 | 37 ft | 7 kts | 238° |
| 2026-05-06 02:26 | 47.53951 | -122.31328 | 38 ft | 3 kts | 242° |
| 2026-05-06 02:27 | 47.53949 | -122.31334 | 38 ft | 0 kts | 242° |